Larache, Morocco
Current Conditions -  °F | °C
As of 7:00 PM on Friday 21 Nov 2014 (Local Time) from GMTT Reporting Station
Broken Clouds Broken Clouds  
Wind Chill: 64°   Ceiling: 20000
Heat Index: 64°   Visibility: 4mi
Dew Point: 59°   Wind: 16mph
Humidity: 83%   Direction: 60°ENE
Pressure: 29.85"   Gusts: NA
Location:  35.2°N, 6.16°W
Report Text: GMTT 211800Z 06014KT 6000 SCT023 BKN200 18/15 Q1011 NOSIG
Loading
Personal Weather Stations






























Interactive Weather Map New forecast layout! Learn more

10-Day Weather Forecast

Advertisements
Track Severe Weather on mobile